Time;durP1;ratioP1;P1;durP2;ratioP2;P2;SDS_P1;SDS_P2;PMS_P1;PMS_P2;Temp;Humidity;BMP_temperature;BMP_pressure;BME280_temperature;BME280_humidity;BME280_pressure;Samples;Min_cycle;Max_cycle;Signal;HPM_P1;HPM_P2
2022/06/19 00:00:45;;;;;;;2.80;2.50;;;;;;;;;;5011854;28;20282;-85
2022/06/19 00:03:16;;;;;;;2.67;2.30;;;;;;;;;;5012265;28;20261;-86
2022/06/19 00:05:43;;;;;;;2.97;2.67;;;;;;;;;;5012119;28;20193;-86
2022/06/19 00:08:10;;;;;;;2.40;2.20;;;;;;;;;;5012047;28;20581;-86
2022/06/19 00:10:38;;;;;;;3.73;2.90;;;;;;;;;;5011928;28;20686;-85
2022/06/19 00:13:05;;;;;;;3.13;2.87;;;;;;;;;;5011738;28;20226;-86
2022/06/19 00:15:32;;;;;;;3.00;2.80;;;;;;;;;;5011608;28;20224;-86
2022/06/19 00:17:59;;;;;;;6.13;3.07;;;;;;;;;;5011752;28;20202;-86
2022/06/19 00:20:26;;;;;;;4.37;2.90;;;;;;;;;;5011888;28;20201;-86
2022/06/19 00:22:53;;;;;;;2.77;2.10;;;;;;;;;;5011775;28;20246;-86
2022/06/19 00:25:21;;;;;;;2.83;2.63;;;;;;;;;;5011854;28;20590;-86
2022/06/19 00:27:49;;;;;;;2.53;2.33;;;;;;;;;;5011524;28;20253;-86
2022/06/19 00:30:16;;;;;;;4.10;2.80;;;;;;;;;;5011594;28;20691;-86
2022/06/19 00:32:43;;;;;;;2.90;2.70;;;;;;;;;;5011711;28;20229;-86
2022/06/19 00:35:11;;;;;;;3.80;2.90;;;;;;;;;;5011860;28;20205;-86
2022/06/19 00:37:38;;;;;;;2.67;2.40;;;;;;;;;;5012196;28;20195;-86
2022/06/19 00:40:07;;;;;;;3.73;3.07;;;;;;;;;;5011668;28;20274;-85
2022/06/19 00:42:35;;;;;;;4.97;2.57;;;;;;;;;;5011407;28;20233;-86
2022/06/19 00:45:04;;;;;;;3.33;3.00;;;;;;;;;;5011235;28;20209;-86
2022/06/19 00:47:35;;;;;;;2.60;2.40;;;;;;;;;;5011078;28;20233;-86
2022/06/19 00:50:06;;;;;;;2.90;2.60;;;;;;;;;;5010903;28;20189;-85
2022/06/19 00:52:36;;;;;;;3.03;2.73;;;;;;;;;;5007611;28;20620;-86
2022/06/19 00:55:08;;;;;;;4.77;2.20;;;;;;;;;;5010359;28;20189;-86
2022/06/19 00:57:38;;;;;;;3.80;2.87;;;;;;;;;;5011064;28;20219;-86
2022/06/19 01:00:11;;;;;;;4.13;2.70;;;;;;;;;;5011047;28;20255;-86
2022/06/19 01:02:39;;;;;;;3.37;3.17;;;;;;;;;;5011345;28;20213;-86
2022/06/19 01:05:07;;;;;;;2.53;2.33;;;;;;;;;;5011172;28;20205;-86
2022/06/19 01:07:34;;;;;;;3.70;2.63;;;;;;;;;;5011365;28;20240;-86
2022/06/19 01:10:02;;;;;;;3.37;2.70;;;;;;;;;;5011044;28;20200;-86
2022/06/19 01:12:31;;;;;;;3.53;2.80;;;;;;;;;;5010701;28;20229;-86
2022/06/19 01:15:01;;;;;;;4.17;2.90;;;;;;;;;;5011101;28;20262;-86
2022/06/19 01:17:31;;;;;;;2.50;2.27;;;;;;;;;;5010943;28;20621;-86
2022/06/19 01:19:58;;;;;;;2.80;2.60;;;;;;;;;;5011459;28;20201;-86
2022/06/19 01:22:34;;;;;;;3.37;3.07;;;;;;;;;;5011047;28;20261;-86
2022/06/19 01:25:11;;;;;;;2.93;2.57;;;;;;;;;;5010523;28;20312;-86
2022/06/19 01:30:30;;;;;;;3.30;2.90;;;;;;;;;;5010689;28;20183;-86
2022/06/19 01:32:58;;;;;;;3.30;2.93;;;;;;;;;;5010362;28;20219;-86
2022/06/19 01:35:28;;;;;;;3.10;2.40;;;;;;;;;;5010628;28;20258;-86
2022/06/19 01:37:56;;;;;;;3.33;2.93;;;;;;;;;;5010625;28;20252;-86
2022/06/19 01:40:26;;;;;;;3.63;2.67;;;;;;;;;;5010289;28;20208;-86
2022/06/19 01:42:53;;;;;;;5.50;2.93;;;;;;;;;;5010073;28;20191;-86
2022/06/19 01:45:20;;;;;;;2.53;2.30;;;;;;;;;;5009923;28;20261;-86
2022/06/19 01:47:47;;;;;;;4.10;2.97;;;;;;;;;;5010469;28;20187;-85
2022/06/19 01:50:16;;;;;;;3.63;3.00;;;;;;;;;;5010499;28;20196;-86
2022/06/19 01:52:44;;;;;;;3.23;2.93;;;;;;;;;;5009917;28;20230;-85
2022/06/19 01:55:13;;;;;;;6.37;2.97;;;;;;;;;;5010282;28;20292;-86
2022/06/19 01:57:44;;;;;;;5.17;2.70;;;;;;;;;;5010254;28;20204;-86
2022/06/19 02:00:14;;;;;;;4.33;2.33;;;;;;;;;;5010130;28;20256;-85
2022/06/19 02:02:42;;;;;;;5.70;3.00;;;;;;;;;;5010383;28;20199;-86
2022/06/19 02:05:09;;;;;;;2.67;2.47;;;;;;;;;;5010588;28;20196;-85
2022/06/19 02:07:36;;;;;;;4.43;3.10;;;;;;;;;;5010454;28;20196;-85
2022/06/19 02:10:05;;;;;;;3.80;3.40;;;;;;;;;;5010294;28;20199;-86
2022/06/19 02:12:33;;;;;;;7.80;3.30;;;;;;;;;;5010235;28;20295;-86
2022/06/19 02:15:04;;;;;;;4.83;2.60;;;;;;;;;;5010042;28;20252;-86
2022/06/19 02:17:37;;;;;;;3.23;2.97;;;;;;;;;;5010006;28;20241;-85
2022/06/19 02:20:05;;;;;;;3.70;3.03;;;;;;;;;;5010598;28;20188;-85
2022/06/19 02:22:34;;;;;;;2.90;2.70;;;;;;;;;;5009852;28;20248;-86
2022/06/19 02:25:02;;;;;;;4.33;2.50;;;;;;;;;;5009877;28;20205;-85
2022/06/19 02:27:32;;;;;;;3.30;2.63;;;;;;;;;;5009929;28;20199;-85
2022/06/19 02:30:02;;;;;;;3.30;2.10;;;;;;;;;;5009690;28;20184;-86
2022/06/19 02:32:34;;;;;;;2.67;2.47;;;;;;;;;;5009887;28;20227;-85
2022/06/19 02:35:02;;;;;;;3.37;3.00;;;;;;;;;;5010035;28;20218;-85
2022/06/19 02:37:33;;;;;;;3.30;3.00;;;;;;;;;;5009428;28;20620;-85
2022/06/19 02:40:05;;;;;;;2.97;2.77;;;;;;;;;;5009860;28;20644;-85
2022/06/19 02:42:35;;;;;;;2.87;2.67;;;;;;;;;;5009278;28;20240;-85
2022/06/19 02:45:07;;;;;;;7.03;2.73;;;;;;;;;;5009742;28;20188;-85
2022/06/19 02:47:35;;;;;;;2.50;2.30;;;;;;;;;;5009126;28;20288;-85
2022/06/19 02:50:04;;;;;;;3.37;2.60;;;;;;;;;;5009476;28;20264;-85
2022/06/19 02:52:31;;;;;;;2.27;2.17;;;;;;;;;;5009518;28;20227;-84
2022/06/19 02:54:58;;;;;;;3.77;2.13;;;;;;;;;;5009533;28;20260;-85
2022/06/19 02:57:26;;;;;;;5.97;3.17;;;;;;;;;;5009237;28;20200;-85
2022/06/19 02:59:53;;;;;;;2.57;2.37;;;;;;;;;;5009176;28;20200;-85
2022/06/19 03:02:22;;;;;;;2.77;2.30;;;;;;;;;;5008934;28;20224;-85
2022/06/19 03:04:51;;;;;;;2.90;2.70;;;;;;;;;;5009575;28;20217;-85
2022/06/19 03:07:18;;;;;;;3.07;2.83;;;;;;;;;;5009245;28;20254;-85
2022/06/19 03:09:45;;;;;;;3.13;2.57;;;;;;;;;;5009160;28;20196;-85
2022/06/19 03:12:13;;;;;;;2.53;2.30;;;;;;;;;;5009235;28;20264;-85
2022/06/19 03:14:40;;;;;;;3.00;2.70;;;;;;;;;;5009231;28;20271;-85
2022/06/19 03:17:07;;;;;;;2.90;2.70;;;;;;;;;;5009481;28;20230;-84
2022/06/19 03:19:36;;;;;;;2.87;2.60;;;;;;;;;;5012734;28;20357;-85
2022/06/19 03:22:03;;;;;;;3.20;2.50;;;;;;;;;;5012789;28;20192;-85
2022/06/19 03:24:30;;;;;;;3.77;2.70;;;;;;;;;;5012259;28;20195;-85
2022/06/19 03:26:57;;;;;;;2.37;2.17;;;;;;;;;;5012430;28;20217;-85
2022/06/19 03:29:24;;;;;;;3.03;2.50;;;;;;;;;;5011945;28;20256;-85
2022/06/19 03:31:51;;;;;;;2.50;2.30;;;;;;;;;;5011992;28;20288;-85
2022/06/19 03:34:18;;;;;;;3.10;2.50;;;;;;;;;;5011852;28;20192;-83
2022/06/19 03:36:47;;;;;;;2.23;2.03;;;;;;;;;;5011983;28;20595;-85
2022/06/19 03:39:14;;;;;;;2.50;1.90;;;;;;;;;;5012123;28;20685;-86
2022/06/19 03:41:41;;;;;;;2.37;2.27;;;;;;;;;;5012763;28;20199;-87
2022/06/19 03:44:08;;;;;;;2.73;2.53;;;;;;;;;;5011940;28;20203;-86
2022/06/19 03:46:35;;;;;;;3.07;2.87;;;;;;;;;;5028411;28;20255;-86
2022/06/19 03:49:02;;;;;;;3.97;2.83;;;;;;;;;;5031656;28;20203;-86
2022/06/19 03:51:30;;;;;;;3.20;2.20;;;;;;;;;;5031854;28;20195;-86
2022/06/19 03:53:58;;;;;;;3.70;2.43;;;;;;;;;;5031550;28;20219;-86
2022/06/19 03:56:29;;;;;;;2.60;2.40;;;;;;;;;;5032088;28;20219;-86
2022/06/19 03:58:56;;;;;;;2.90;2.40;;;;;;;;;;5031856;28;20263;-86
2022/06/19 04:01:26;;;;;;;2.93;2.30;;;;;;;;;;5032167;28;20195;-86
2022/06/19 04:03:54;;;;;;;2.50;2.30;;;;;;;;;;5031582;28;20198;-86
2022/06/19 04:06:24;;;;;;;2.93;2.20;;;;;;;;;;5032049;28;20648;-86
2022/06/19 04:08:52;;;;;;;2.50;2.30;;;;;;;;;;5031400;28;20203;-86
2022/06/19 04:11:23;;;;;;;2.53;2.33;;;;;;;;;;5031385;28;20203;-86
2022/06/19 04:13:52;;;;;;;3.00;2.70;;;;;;;;;;5011564;28;20692;-86
2022/06/19 04:16:21;;;;;;;2.57;2.37;;;;;;;;;;5011489;28;20192;-86
2022/06/19 04:18:49;;;;;;;2.60;2.03;;;;;;;;;;5011574;28;20253;-86
2022/06/19 04:21:19;;;;;;;2.80;2.60;;;;;;;;;;5011387;28;20196;-86
2022/06/19 04:23:46;;;;;;;2.30;2.20;;;;;;;;;;5011977;28;20637;-86
2022/06/19 04:26:16;;;;;;;2.40;2.20;;;;;;;;;;5011764;28;20229;-86
2022/06/19 04:28:44;;;;;;;2.47;2.10;;;;;;;;;;5010280;28;20213;-86
2022/06/19 04:31:12;;;;;;;3.40;2.20;;;;;;;;;;5011386;28;20261;-86
2022/06/19 04:33:39;;;;;;;2.63;2.40;;;;;;;;;;5013459;28;20277;-89
2022/06/19 04:36:06;;;;;;;2.80;2.47;;;;;;;;;;5031696;28;20224;-88
2022/06/19 04:38:33;;;;;;;2.33;2.10;;;;;;;;;;5030818;28;20265;-85
2022/06/19 04:41:00;;;;;;;2.60;2.10;;;;;;;;;;5033260;28;20195;-96
2022/06/19 04:43:27;;;;;;;2.47;2.23;;;;;;;;;;5035211;28;20198;-95
2022/06/19 04:46:03;;;;;;;5.10;2.13;;;;;;;;;;5032667;28;20272;-94
2022/06/19 04:48:31;;;;;;;2.13;1.70;;;;;;;;;;5031148;28;20196;-95
2022/06/19 04:50:58;;;;;;;1.90;1.70;;;;;;;;;;5033191;28;20194;-95
2022/06/19 04:53:25;;;;;;;4.53;2.50;;;;;;;;;;5033521;28;20285;-92
2022/06/19 04:55:52;;;;;;;3.93;2.17;;;;;;;;;;5031399;28;20200;-94
2022/06/19 04:58:22;;;;;;;2.33;2.13;;;;;;;;;;5031797;28;20257;-94
2022/06/19 05:00:49;;;;;;;2.00;1.80;;;;;;;;;;5031992;28;20220;-93
2022/06/19 05:03:19;;;;;;;2.20;2.00;;;;;;;;;;5031564;28;20201;-93
2022/06/19 05:05:46;;;;;;;4.70;2.10;;;;;;;;;;5031727;28;20224;-94
2022/06/19 05:08:13;;;;;;;2.20;2.10;;;;;;;;;;5031271;28;20194;-94
2022/06/19 05:10:41;;;;;;;4.10;1.77;;;;;;;;;;5031781;28;20567;-93
2022/06/19 05:13:15;;;;;;;2.30;2.10;;;;;;;;;;5030620;28;20225;-95
2022/06/19 05:15:42;;;;;;;1.80;1.70;;;;;;;;;;5031303;28;20191;-93
2022/06/19 05:18:09;;;;;;;2.87;2.00;;;;;;;;;;5031139;28;20209;-94
2022/06/19 05:20:38;;;;;;;2.30;2.20;;;;;;;;;;5031406;28;20213;-92
2022/06/19 05:23:05;;;;;;;2.30;2.10;;;;;;;;;;5030924;28;20194;-91
2022/06/19 05:25:32;;;;;;;2.60;2.27;;;;;;;;;;5031282;28;20198;-92
2022/06/19 05:27:59;;;;;;;4.70;2.80;;;;;;;;;;5030671;28;20194;-90
2022/06/19 05:30:26;;;;;;;2.60;2.40;;;;;;;;;;5030679;28;20203;-92
2022/06/19 05:32:53;;;;;;;3.60;2.60;;;;;;;;;;5030896;28;20226;-92
2022/06/19 05:35:20;;;;;;;2.43;2.23;;;;;;;;;;5030539;28;20199;-92
2022/06/19 05:37:49;;;;;;;2.90;2.17;;;;;;;;;;5030924;28;20195;-92
2022/06/19 05:40:17;;;;;;;2.37;1.90;;;;;;;;;;5030116;28;20199;-92
2022/06/19 05:42:44;;;;;;;2.37;2.10;;;;;;;;;;5030965;28;20744;-91
2022/06/19 05:45:12;;;;;;;2.30;2.20;;;;;;;;;;5030367;28;20281;-90
2022/06/19 05:47:39;;;;;;;3.60;1.83;;;;;;;;;;5030495;28;20263;-91
2022/06/19 05:50:07;;;;;;;4.47;2.50;;;;;;;;;;5030717;28;20203;-92
2022/06/19 05:52:34;;;;;;;2.13;1.77;;;;;;;;;;5030296;28;20810;-90
2022/06/19 05:55:03;;;;;;;4.00;2.30;;;;;;;;;;5030489;28;20295;-91
2022/06/19 05:57:30;;;;;;;2.13;2.00;;;;;;;;;;5030347;28;20228;-91
2022/06/19 05:59:57;;;;;;;6.00;2.43;;;;;;;;;;5030567;28;20259;-91
2022/06/19 06:02:26;;;;;;;6.77;2.20;;;;;;;;;;5030456;28;20601;-91
2022/06/19 06:04:53;;;;;;;2.57;1.90;;;;;;;;;;5030669;28;20579;-89
2022/06/19 06:07:20;;;;;;;1.97;1.87;;;;;;;;;;5030166;28;20203;-92
2022/06/19 06:09:47;;;;;;;3.57;2.00;;;;;;;;;;5030227;28;20195;-90
2022/06/19 06:12:16;;;;;;;2.57;2.13;;;;;;;;;;5030178;28;20251;-91
2022/06/19 06:14:43;;;;;;;3.27;1.83;;;;;;;;;;5030262;28;20222;-90
2022/06/19 06:17:11;;;;;;;4.00;2.10;;;;;;;;;;5030668;28;20203;-91
2022/06/19 06:19:38;;;;;;;2.03;1.67;;;;;;;;;;5030495;28;20248;-92
2022/06/19 06:22:06;;;;;;;1.90;1.80;;;;;;;;;;5029928;28;20243;-91
2022/06/19 06:24:33;;;;;;;2.03;1.83;;;;;;;;;;5029825;28;20201;-91
2022/06/19 06:27:00;;;;;;;7.27;2.87;;;;;;;;;;5030053;28;20187;-90
2022/06/19 06:29:28;;;;;;;2.57;2.37;;;;;;;;;;5030245;28;20563;-90
2022/06/19 06:31:58;;;;;;;1.90;1.80;;;;;;;;;;5030198;28;20263;-91
2022/06/19 06:34:25;;;;;;;2.20;2.10;;;;;;;;;;5029728;28;20222;-93
2022/06/19 06:36:52;;;;;;;2.60;2.07;;;;;;;;;;5030600;28;20194;-91
2022/06/19 06:39:20;;;;;;;6.13;2.27;;;;;;;;;;5030278;28;20199;-91
2022/06/19 06:41:47;;;;;;;6.33;2.30;;;;;;;;;;5029869;28;20207;-91
2022/06/19 06:44:14;;;;;;;4.23;2.30;;;;;;;;;;5029778;28;20199;-91
2022/06/19 06:46:43;;;;;;;2.20;2.00;;;;;;;;;;5029424;28;20230;-91
2022/06/19 06:49:10;;;;;;;2.10;1.80;;;;;;;;;;5029690;28;20199;-90
2022/06/19 06:51:37;;;;;;;3.67;2.20;;;;;;;;;;5030127;28;20203;-91
2022/06/19 06:54:05;;;;;;;3.23;2.00;;;;;;;;;;5033377;28;20223;-91
2022/06/19 06:56:33;;;;;;;2.63;1.90;;;;;;;;;;5033384;28;20251;-91
2022/06/19 06:59:00;;;;;;;5.13;1.80;;;;;;;;;;5033684;28;20198;-90
2022/06/19 07:01:29;;;;;;;3.90;2.03;;;;;;;;;;5033183;28;20225;-90
2022/06/19 07:03:59;;;;;;;2.00;1.60;;;;;;;;;;5033157;28;20203;-90
2022/06/19 07:06:28;;;;;;;2.57;1.77;;;;;;;;;;5033341;28;20574;-92
2022/06/19 07:08:55;;;;;;;1.70;1.60;;;;;;;;;;5032845;28;20203;-92
2022/06/19 07:11:25;;;;;;;1.90;1.70;;;;;;;;;;5032909;28;20235;-91
2022/06/19 07:13:53;;;;;;;2.40;1.70;;;;;;;;;;5032675;27;20227;-93
2022/06/19 07:16:20;;;;;;;2.20;1.40;;;;;;;;;;5033470;28;20727;-92
2022/06/19 07:18:47;;;;;;;3.47;1.60;;;;;;;;;;5033165;28;20259;-91
2022/06/19 07:21:15;;;;;;;2.77;2.17;;;;;;;;;;5033010;28;20586;-92
2022/06/19 07:23:43;;;;;;;1.87;1.50;;;;;;;;;;5032795;28;20620;-91
2022/06/19 07:26:12;;;;;;;2.27;1.60;;;;;;;;;;5032635;28;20578;-92
2022/06/19 07:28:39;;;;;;;1.80;1.70;;;;;;;;;;5032704;28;20278;-92
2022/06/19 07:31:06;;;;;;;3.00;2.03;;;;;;;;;;5032619;28;20663;-91
2022/06/19 07:33:34;;;;;;;3.27;1.80;;;;;;;;;;5032774;28;20226;-92
2022/06/19 07:36:01;;;;;;;3.47;1.50;;;;;;;;;;5032491;28;20195;-90
2022/06/19 07:38:30;;;;;;;1.70;1.60;;;;;;;;;;5032428;28;20210;-92
2022/06/19 07:40:57;;;;;;;1.73;1.33;;;;;;;;;;5032771;28;20195;-91
2022/06/19 07:43:25;;;;;;;1.90;1.70;;;;;;;;;;5032450;28;20198;-93
2022/06/19 07:45:54;;;;;;;1.87;1.77;;;;;;;;;;5032305;28;20226;-93
2022/06/19 07:51:05;;;;;;;2.53;1.70;;;;;;;;;;5032428;28;20728;-92
2022/06/19 07:53:34;;;;;;;1.50;1.40;;;;;;;;;;5032262;28;20222;-92
2022/06/19 07:56:01;;;;;;;1.50;1.40;;;;;;;;;;5032403;28;20195;-91
2022/06/19 07:58:28;;;;;;;2.37;1.60;;;;;;;;;;5032204;28;20194;-92
2022/06/19 08:00:56;;;;;;;2.77;1.50;;;;;;;;;;5032403;28;20660;-92
2022/06/19 08:03:23;;;;;;;1.60;1.50;;;;;;;;;;5031716;28;20207;-90
2022/06/19 08:05:50;;;;;;;1.50;1.40;;;;;;;;;;5032110;28;20195;-94
2022/06/19 08:08:19;;;;;;;1.50;1.40;;;;;;;;;;5031916;28;20667;-92
2022/06/19 08:10:50;;;;;;;2.80;1.60;;;;;;;;;;5032162;28;20195;-91
2022/06/19 08:13:20;;;;;;;4.23;1.60;;;;;;;;;;5031887;28;20355;-92
2022/06/19 08:15:48;;;;;;;2.00;1.70;;;;;;;;;;5032115;28;20202;-95
2022/06/19 08:18:15;;;;;;;1.60;1.50;;;;;;;;;;5032225;28;20247;-92
2022/06/19 08:20:42;;;;;;;1.40;1.30;;;;;;;;;;5031798;28;20194;-93
2022/06/19 08:23:09;;;;;;;2.10;1.90;;;;;;;;;;5031861;28;20202;-91
2022/06/19 08:25:37;;;;;;;4.47;2.00;;;;;;;;;;5031674;28;20318;-91
2022/06/19 08:28:05;;;;;;;3.93;1.57;;;;;;;;;;5031674;28;20195;-90
2022/06/19 08:30:34;;;;;;;2.00;1.50;;;;;;;;;;5032030;28;20199;-92
2022/06/19 08:33:01;;;;;;;1.57;1.47;;;;;;;;;;5031819;28;20585;-92
2022/06/19 08:35:30;;;;;;;1.90;1.23;;;;;;;;;;5031431;28;20222;-91
2022/06/19 08:38:00;;;;;;;1.60;1.50;;;;;;;;;;5031885;28;20259;-91
2022/06/19 08:40:36;;;;;;;1.70;1.60;;;;;;;;;;5031368;28;20244;-91
2022/06/19 08:43:18;;;;;;;1.40;1.30;;;;;;;;;;5031343;28;20183;-91
2022/06/19 08:45:52;;;;;;;3.13;1.47;;;;;;;;;;5031553;28;20268;-92
2022/06/19 08:48:29;;;;;;;1.77;1.40;;;;;;;;;;5031570;28;20209;-91
2022/06/19 08:51:01;;;;;;;4.10;1.67;;;;;;;;;;5031619;28;20195;-91
2022/06/19 08:53:41;;;;;;;1.20;1.10;;;;;;;;;;5031170;28;20191;-91
2022/06/19 08:56:12;;;;;;;1.50;1.40;;;;;;;;;;5031229;28;20191;-91
2022/06/19 08:58:45;;;;;;;2.10;1.60;;;;;;;;;;5031112;28;20191;-93
2022/06/19 09:01:19;;;;;;;1.40;1.30;;;;;;;;;;5031563;28;20229;-92
2022/06/19 09:06:41;;;;;;;6.80;2.97;;;;;;;;;;5031410;28;20232;-92
2022/06/19 09:09:27;;;;;;;1.33;1.23;;;;;;;;;;5030861;28;20675;-91
2022/06/19 09:12:03;;;;;;;2.83;1.43;;;;;;;;;;5031072;28;20278;-91
2022/06/19 09:14:39;;;;;;;1.70;1.50;;;;;;;;;;5030200;28;20244;-90
2022/06/19 09:17:14;;;;;;;1.53;1.43;;;;;;;;;;5031240;27;20621;-90
2022/06/19 09:19:49;;;;;;;1.03;1.00;;;;;;;;;;5030987;28;20195;-89
2022/06/19 09:22:33;;;;;;;2.67;1.40;;;;;;;;;;5030614;28;20190;-90
2022/06/19 09:25:13;;;;;;;4.23;1.70;;;;;;;;;;5031073;28;20613;-89
2022/06/19 09:27:44;;;;;;;2.97;1.57;;;;;;;;;;5031355;28;20187;-90
2022/06/19 09:30:16;;;;;;;3.83;1.77;;;;;;;;;;5030920;28;20183;-90
2022/06/19 09:32:45;;;;;;;1.97;1.70;;;;;;;;;;5030534;28;20183;-89
2022/06/19 09:35:15;;;;;;;1.10;1.10;;;;;;;;;;5030672;28;20764;-90
2022/06/19 09:37:45;;;;;;;2.27;1.30;;;;;;;;;;5030633;28;20625;-88
2022/06/19 09:40:18;;;;;;;2.00;1.30;;;;;;;;;;5030645;28;20613;-91
2022/06/19 09:42:47;;;;;;;2.73;1.20;;;;;;;;;;5030643;28;20199;-90
2022/06/19 09:45:18;;;;;;;1.50;1.23;;;;;;;;;;5030798;28;20233;-89
2022/06/19 09:47:59;;;;;;;1.30;1.20;;;;;;;;;;5031203;28;20251;-90
2022/06/19 09:50:32;;;;;;;1.40;1.30;;;;;;;;;;5031578;28;20202;-88
2022/06/19 09:53:05;;;;;;;1.70;1.50;;;;;;;;;;5031139;28;20190;-90
2022/06/19 09:55:36;;;;;;;1.27;1.20;;;;;;;;;;5030349;28;20229;-91
2022/06/19 09:58:10;;;;;;;1.57;1.20;;;;;;;;;;5030646;28;20207;-89
2022/06/19 10:00:40;;;;;;;2.60;1.40;;;;;;;;;;5030364;28;20202;-89
2022/06/19 10:03:15;;;;;;;1.27;1.27;;;;;;;;;;5030615;28;20207;-89
2022/06/19 10:05:46;;;;;;;3.37;1.40;;;;;;;;;;5030635;28;20179;-89
2022/06/19 10:08:16;;;;;;;2.07;1.33;;;;;;;;;;5026819;28;20253;-90
2022/06/19 10:10:48;;;;;;;1.63;1.53;;;;;;;;;;5018166;28;20183;-89
2022/06/19 10:13:18;;;;;;;1.20;1.20;;;;;;;;;;5030419;28;20195;-90
2022/06/19 10:15:48;;;;;;;1.43;1.30;;;;;;;;;;5029898;28;20242;-90
2022/06/19 10:18:17;;;;;;;1.30;1.20;;;;;;;;;;5030241;28;20199;-90
2022/06/19 10:20:51;;;;;;;1.20;1.20;;;;;;;;;;5030103;28;20241;-90
2022/06/19 10:23:26;;;;;;;1.70;1.57;;;;;;;;;;5030318;28;20553;-89
2022/06/19 10:26:03;;;;;;;1.20;1.20;;;;;;;;;;5030058;28;20277;-89
2022/06/19 10:28:54;;;;;;;3.17;1.67;;;;;;;;;;5030045;28;20621;-90
2022/06/19 10:31:27;;;;;;;1.20;1.20;;;;;;;;;;5030078;28;20187;-90
2022/06/19 10:34:03;;;;;;;1.60;1.50;;;;;;;;;;5029902;28;20194;-92
2022/06/19 10:36:34;;;;;;;1.37;1.10;;;;;;;;;;5030221;28;20255;-91
2022/06/19 10:39:10;;;;;;;1.10;1.10;;;;;;;;;;5029715;28;20191;-90
2022/06/19 10:44:41;;;;;;;1.73;1.40;;;;;;;;;;5030515;28;20178;-91
2022/06/19 10:47:13;;;;;;;1.20;1.20;;;;;;;;;;5029532;28;20238;-91
2022/06/19 10:49:51;;;;;;;3.67;1.77;;;;;;;;;;5029687;28;20187;-91
2022/06/19 10:52:23;;;;;;;1.67;1.30;;;;;;;;;;5030004;28;20194;-91
2022/06/19 10:55:06;;;;;;;2.13;1.53;;;;;;;;;;5029433;28;20264;-90
2022/06/19 10:57:57;;;;;;;2.50;1.50;;;;;;;;;;5026645;28;20191;-84
2022/06/19 11:00:24;;;;;;;1.50;1.40;;;;;;;;;;5028480;28;20214;-82
2022/06/19 11:05:50;;;;;;;1.70;1.60;;;;;;;;;;5028010;28;20189;-82
2022/06/19 11:08:19;;;;;;;1.63;1.53;;;;;;;;;;5028377;28;20187;-82
2022/06/19 11:10:49;;;;;;;1.83;1.60;;;;;;;;;;5028235;28;20198;-80
2022/06/19 11:13:16;;;;;;;1.67;1.30;;;;;;;;;;5028645;28;20617;-80
2022/06/19 11:15:47;;;;;;;3.23;1.47;;;;;;;;;;5027991;28;20718;-80
2022/06/19 11:18:18;;;;;;;5.43;1.57;;;;;;;;;;5028350;28;20187;-80
2022/06/19 11:20:59;;;;;;;1.63;1.50;;;;;;;;;;5028263;28;20247;-80
2022/06/19 11:23:30;;;;;;;1.40;1.30;;;;;;;;;;5028161;28;20199;-80
2022/06/19 11:26:11;;;;;;;1.33;1.27;;;;;;;;;;5028083;28;20187;-80
2022/06/19 11:28:43;;;;;;;1.20;1.20;;;;;;;;;;5028218;28;20251;-80
2022/06/19 11:31:13;;;;;;;1.60;1.50;;;;;;;;;;5027997;28;20244;-80
2022/06/19 11:33:43;;;;;;;1.73;1.63;;;;;;;;;;5027677;28;20198;-80
2022/06/19 11:36:28;;;;;;;1.73;1.63;;;;;;;;;;5027999;28;20253;-80
2022/06/19 11:38:55;;;;;;;3.20;1.63;;;;;;;;;;5030336;28;20191;-81
2022/06/19 11:41:32;;;;;;;1.60;1.50;;;;;;;;;;5031246;28;20195;-80
2022/06/19 11:44:07;;;;;;;1.70;1.60;;;;;;;;;;5031712;28;20183;-80
2022/06/19 11:46:44;;;;;;;2.38;2.20;;;;;;;;;;5031201;28;20317;-80
2022/06/19 11:49:25;;;;;;;1.55;1.42;;;;;;;;;;5031321;28;20663;-80
2022/06/19 11:51:53;;;;;;;1.40;1.30;;;;;;;;;;5031116;28;20194;-80
2022/06/19 11:54:24;;;;;;;2.83;1.85;;;;;;;;;;5030571;28;20206;-78
2022/06/19 11:56:52;;;;;;;1.73;1.40;;;;;;;;;;5031105;28;20183;-79
2022/06/19 11:59:26;;;;;;;1.98;1.58;;;;;;;;;;5020647;28;20215;-79
2022/06/19 12:01:53;;;;;;;2.05;1.60;;;;;;;;;;5031122;28;20259;-79
2022/06/19 12:04:28;;;;;;;3.00;1.80;;;;;;;;;;5031742;28;20318;-79
2022/06/19 12:06:57;;;;;;;3.30;1.90;;;;;;;;;;5031166;28;20239;-78
2022/06/19 12:09:29;;;;;;;1.48;1.38;;;;;;;;;;5031401;28;20670;-79
2022/06/19 12:12:01;;;;;;;3.35;1.40;;;;;;;;;;5030586;28;20686;-78
2022/06/19 12:14:29;;;;;;;1.63;1.50;;;;;;;;;;5029699;28;20211;-80
2022/06/19 12:17:11;;;;;;;1.60;1.50;;;;;;;;;;5011329;28;20737;-79
2022/06/19 12:19:48;;;;;;;2.00;1.52;;;;;;;;;;5011560;28;20246;-79
2022/06/19 12:22:16;;;;;;;1.52;1.35;;;;;;;;;;5010795;28;20187;-79
2022/06/19 12:24:49;;;;;;;1.35;1.25;;;;;;;;;;5011070;28;20202;-79
2022/06/19 12:27:18;;;;;;;1.35;1.25;;;;;;;;;;5010905;28;20245;-80
2022/06/19 12:29:48;;;;;;;1.60;1.50;;;;;;;;;;5011098;28;20199;-80
2022/06/19 12:32:21;;;;;;;1.52;1.42;;;;;;;;;;5010802;28;20275;-79
2022/06/19 12:34:52;;;;;;;1.48;1.38;;;;;;;;;;5018149;28;20210;-79
2022/06/19 12:37:23;;;;;;;1.30;1.20;;;;;;;;;;5011520;28;20199;-80
2022/06/19 12:39:50;;;;;;;1.30;1.30;;;;;;;;;;5011033;28;20225;-79
2022/06/19 12:42:22;;;;;;;8.55;2.70;;;;;;;;;;5010871;28;20640;-79
2022/06/19 12:45:01;;;;;;;2.03;1.83;;;;;;;;;;5010680;28;20198;-80
2022/06/19 12:47:34;;;;;;;3.00;1.50;;;;;;;;;;5010174;28;20247;-79
2022/06/19 12:50:29;;;;;;;1.83;1.27;;;;;;;;;;5009457;28;20192;-79
2022/06/19 12:53:06;;;;;;;1.50;1.40;;;;;;;;;;5011004;28;20553;-82
2022/06/19 12:55:42;;;;;;;1.45;1.35;;;;;;;;;;5009156;28;20211;-85
2022/06/19 12:58:29;;;;;;;1.60;1.50;;;;;;;;;;5010391;28;20233;-83
2022/06/19 13:01:00;;;;;;;2.17;1.70;;;;;;;;;;5011455;28;20192;-85
2022/06/19 13:03:46;;;;;;;1.50;1.40;;;;;;;;;;5010512;28;20184;-85
2022/06/19 13:06:27;;;;;;;1.42;1.33;;;;;;;;;;5009695;28;20180;-82
2022/06/19 13:09:00;;;;;;;1.38;1.30;;;;;;;;;;5010466;28;20176;-83
2022/06/19 13:11:32;;;;;;;1.67;1.58;;;;;;;;;;5010503;28;20253;-84
2022/06/19 13:14:21;;;;;;;1.95;1.73;;;;;;;;;;5011160;28;20245;-87
2022/06/19 13:16:54;;;;;;;2.17;1.13;;;;;;;;;;5009680;28;20250;-93
2022/06/19 13:19:30;;;;;;;1.70;1.60;;;;;;;;;;5010840;28;20191;-82
2022/06/19 13:22:06;;;;;;;2.28;1.60;;;;;;;;;;5010365;28;20256;-89
2022/06/19 13:24:40;;;;;;;1.50;1.40;;;;;;;;;;5011234;28;20561;-84
2022/06/19 13:27:15;;;;;;;1.50;1.38;;;;;;;;;;5009908;28;20195;-85
2022/06/19 13:30:05;;;;;;;1.50;1.40;;;;;;;;;;5009804;28;20202;-79
2022/06/19 13:32:41;;;;;;;1.50;1.40;;;;;;;;;;5010838;28;20270;-91
2022/06/19 13:35:19;;;;;;;1.30;1.20;;;;;;;;;;5013581;28;20256;-91
2022/06/19 13:38:01;;;;;;;1.95;1.50;;;;;;;;;;5010576;28;20675;-90
2022/06/19 13:40:34;;;;;;;1.55;1.40;;;;;;;;;;5010760;28;20184;-90
2022/06/19 13:43:13;;;;;;;1.65;1.55;;;;;;;;;;5011076;28;20223;-92
2022/06/19 13:45:56;;;;;;;2.03;1.85;;;;;;;;;;5010861;28;20231;-92
2022/06/19 13:48:27;;;;;;;1.75;1.40;;;;;;;;;;5010486;28;20195;-92
2022/06/19 13:50:58;;;;;;;2.25;2.05;;;;;;;;;;5010894;28;20196;-89
2022/06/19 13:53:32;;;;;;;1.85;1.75;;;;;;;;;;5010460;28;20219;-90
2022/06/19 13:56:05;;;;;;;1.50;1.40;;;;;;;;;;5010440;28;20208;-90
2022/06/19 13:58:48;;;;;;;1.52;1.17;;;;;;;;;;5010698;28;20215;-91
2022/06/19 14:01:23;;;;;;;1.40;1.30;;;;;;;;;;5009853;28;20187;-91
2022/06/19 14:07:13;;;;;;;2.40;1.48;;;;;;;;;;5010647;28;20371;-91
2022/06/19 14:09:47;;;;;;;1.60;1.50;;;;;;;;;;5010555;28;20191;-91
2022/06/19 14:12:17;;;;;;;2.00;1.57;;;;;;;;;;5010596;28;20604;-90
2022/06/19 14:14:45;;;;;;;1.50;1.40;;;;;;;;;;5010695;28;20222;-90
2022/06/19 14:17:24;;;;;;;1.77;1.67;;;;;;;;;;5010131;28;20223;-90
2022/06/19 14:20:08;;;;;;;1.83;1.73;;;;;;;;;;5010487;28;20256;-90
2022/06/19 14:22:41;;;;;;;1.83;1.73;;;;;;;;;;5010092;28;20222;-89
2022/06/19 14:25:18;;;;;;;2.90;1.30;;;;;;;;;;5010327;28;20195;-92
2022/06/19 14:27:55;;;;;;;1.53;1.40;;;;;;;;;;5010067;28;20203;-89
2022/06/19 14:30:27;;;;;;;4.43;1.50;;;;;;;;;;5010154;28;20214;-90
2022/06/19 14:33:02;;;;;;;1.73;1.63;;;;;;;;;;5010002;28;20206;-90
2022/06/19 14:35:31;;;;;;;1.90;1.60;;;;;;;;;;5012322;28;20217;-88
2022/06/19 14:38:19;;;;;;;1.30;1.30;;;;;;;;;;5029678;28;20643;-89
2022/06/19 14:41:09;;;;;;;1.40;1.17;;;;;;;;;;5029970;28;20623;-89
2022/06/19 14:43:39;;;;;;;2.80;1.40;;;;;;;;;;5029897;28;20538;-88
2022/06/19 14:46:25;;;;;;;3.47;1.70;;;;;;;;;;5029279;28;20235;-90
2022/06/19 14:49:21;;;;;;;3.17;1.33;;;;;;;;;;5029510;28;20257;-90
2022/06/19 14:51:55;;;;;;;1.42;1.33;;;;;;;;;;5029499;28;20655;-90
2022/06/19 14:54:44;;;;;;;1.70;1.40;;;;;;;;;;5029265;28;20199;-91
2022/06/19 14:57:28;;;;;;;4.07;1.70;;;;;;;;;;5029101;28;20234;-91
2022/06/19 14:59:58;;;;;;;1.52;1.42;;;;;;;;;;5029618;28;20199;-90
2022/06/19 15:02:36;;;;;;;2.43;1.20;;;;;;;;;;5029635;28;20582;-90
2022/06/19 15:05:08;;;;;;;1.50;1.40;;;;;;;;;;5029413;28;20202;-89
2022/06/19 15:07:36;;;;;;;11.55;3.85;;;;;;;;;;5029705;28;20196;-89
2022/06/19 15:10:07;;;;;;;3.70;1.90;;;;;;;;;;5029049;28;20706;-89
2022/06/19 15:12:36;;;;;;;1.77;1.67;;;;;;;;;;5028469;28;20206;-89
2022/06/19 15:15:08;;;;;;;1.40;1.30;;;;;;;;;;5032302;28;20254;-89
2022/06/19 15:17:38;;;;;;;3.07;1.50;;;;;;;;;;5032525;28;20248;-90
2022/06/19 15:20:42;;;;;;;1.43;1.33;;;;;;;;;;5032578;28;20207;-89
2022/06/19 15:23:37;;;;;;;2.17;1.23;;;;;;;;;;5032777;28;20248;-90